Gadsden, Alabama
Current Conditions -  °F | °C
As of 1:35 PM on Friday 28 Nov 2014 (Local Time) from KGAD Reporting Station
Clear Clear  
Wind Chill: 46°   Ceiling: Unl
Heat Index: 46°   Visibility: 10mi
Dew Point: 14°   Wind: 0mph
Humidity: 27%   Direction: NA
Pressure: 30.32"   Gusts: NA
Location:  34.01°N, 86.01°W
Report Text: KGAD 281935Z 00000KT 10SM CLR 08/M10 A3032 RMK AO1
Loading
Personal Weather Stations






























Interactive Weather Map New forecast layout! Learn more

10-Day Weather Forecast

Advertisements
Track Severe Weather on mobile